SAS2535 EKCH-EGBB
Flight info
| Callsign | SAS2535 |
|---|---|
| Flight time | 1h 41m |
| Altitude | 36000 |
| Route | LANGO DCT ALASA DCT NOGRO M40 SABER L980 LAM L610 HEMEL |
| Aircraft | CRJX/M-SDFGIRWY/S |
Departure
| Time | 2026-05-06 12:36 |
|---|---|
| Airport | Copenhagen Kastrup Airport (EKCH) |
Arrival
| Time | 2026-05-06 14:17 |
|---|---|
| Airport | Birmingham Airport (EGBB) |
| Time | Latitude | Longitude | Altitude | Speed | Heading |
|---|---|---|---|---|---|
| 2026-05-06 12:04 | 55.62800 | 12.66253 | 23 ft | 0 kts | 311° |
| 2026-05-06 12:24 | 55.62788 | 12.66278 | 24 ft | 3 kts | 311° |
| 2026-05-06 12:25 | 55.62775 | 12.66303 | 24 ft | 3 kts | 303° |
| 2026-05-06 12:25 | 55.62769 | 12.66336 | 25 ft | 3 kts | 263° |
| 2026-05-06 12:25 | 55.62778 | 12.66364 | 27 ft | 2 kts | 221° |
| 2026-05-06 12:25 | 55.62766 | 12.66345 | 24 ft | 3 kts | 221° |
| 2026-05-06 12:26 | 55.62748 | 12.66317 | 23 ft | 3 kts | 221° |
| 2026-05-06 12:26 | 55.62745 | 12.66313 | 23 ft | 0 kts | 221° |
| 2026-05-06 12:27 | 55.62740 | 12.66305 | 22 ft | 3 kts | 221° |
| 2026-05-06 12:28 | 55.62709 | 12.66257 | 22 ft | 8 kts | 221° |
| 2026-05-06 12:28 | 55.62658 | 12.66177 | 22 ft | 10 kts | 223° |
| 2026-05-06 12:28 | 55.62593 | 12.66133 | 22 ft | 10 kts | 178° |
| 2026-05-06 12:28 | 55.62525 | 12.66167 | 22 ft | 10 kts | 141° |
| 2026-05-06 12:29 | 55.62468 | 12.66222 | 22 ft | 8 kts | 199° |
| 2026-05-06 12:29 | 55.62420 | 12.66155 | 22 ft | 10 kts | 220° |
| 2026-05-06 12:29 | 55.62362 | 12.66065 | 22 ft | 13 kts | 221° |
| 2026-05-06 12:29 | 55.62304 | 12.65925 | 22 ft | 15 kts | 261° |
| 2026-05-06 12:30 | 55.62300 | 12.65742 | 22 ft | 15 kts | 269° |
| 2026-05-06 12:30 | 55.62297 | 12.65553 | 22 ft | 15 kts | 269° |
| 2026-05-06 12:30 | 55.62295 | 12.65361 | 22 ft | 16 kts | 268° |
| 2026-05-06 12:30 | 55.62256 | 12.65201 | 22 ft | 15 kts | 197° |
| 2026-05-06 12:31 | 55.62163 | 12.65124 | 24 ft | 16 kts | 213° |
| 2026-05-06 12:31 | 55.62060 | 12.65006 | 23 ft | 19 kts | 213° |
| 2026-05-06 12:31 | 55.61936 | 12.64863 | 23 ft | 23 kts | 212° |
| 2026-05-06 12:31 | 55.61797 | 12.64703 | 25 ft | 25 kts | 213° |
| 2026-05-06 12:32 | 55.61649 | 12.64532 | 22 ft | 26 kts | 213° |
| 2026-05-06 12:32 | 55.61492 | 12.64354 | 22 ft | 27 kts | 213° |
| 2026-05-06 12:32 | 55.61333 | 12.64171 | 24 ft | 27 kts | 213° |
| 2026-05-06 12:32 | 55.61175 | 12.63990 | 24 ft | 27 kts | 213° |
| 2026-05-06 12:33 | 55.61020 | 12.63811 | 22 ft | 27 kts | 213° |
| 2026-05-06 12:33 | 55.60863 | 12.63630 | 23 ft | 28 kts | 213° |
| 2026-05-06 12:33 | 55.60702 | 12.63445 | 22 ft | 28 kts | 213° |
| 2026-05-06 12:33 | 55.60570 | 12.63259 | 22 ft | 19 kts | 221° |
| 2026-05-06 12:34 | 55.60498 | 12.63148 | 23 ft | 13 kts | 221° |
| 2026-05-06 12:34 | 55.60420 | 12.63135 | 23 ft | 12 kts | 146° |
| 2026-05-06 12:34 | 55.60365 | 12.63237 | 23 ft | 11 kts | 130° |
| 2026-05-06 12:34 | 55.60341 | 12.63340 | 24 ft | 8 kts | 72° |
| 2026-05-06 12:35 | 55.60421 | 12.63471 | 23 ft | 39 kts | 41° |
| 2026-05-06 12:35 | 55.60785 | 12.64034 | 24 ft | 98 kts | 41° |
| 2026-05-06 12:35 | 55.61422 | 12.65028 | 23 ft | 144 kts | 41° |
| 2026-05-06 12:35 | 55.62249 | 12.66272 | 338 ft | 159 kts | 43° |
| 2026-05-06 12:36 | 55.63071 | 12.67540 | 1132 ft | 155 kts | 45° |
| 2026-05-06 12:36 | 55.63884 | 12.68801 | 1768 ft | 158 kts | 45° |
| 2026-05-06 12:36 | 55.64757 | 12.70168 | 2147 ft | 176 kts | 45° |
| 2026-05-06 12:36 | 55.65752 | 12.71746 | 2422 ft | 204 kts | 44° |
| 2026-05-06 12:37 | 55.66875 | 12.73465 | 2937 ft | 223 kts | 42° |
| 2026-05-06 12:37 | 55.68116 | 12.75292 | 3482 ft | 240 kts | 42° |
| 2026-05-06 12:37 | 55.69437 | 12.77250 | 4084 ft | 252 kts | 42° |
| 2026-05-06 12:37 | 55.70605 | 12.79559 | 4853 ft | 255 kts | 65° |
| 2026-05-06 12:38 | 55.70811 | 12.82642 | 5644 ft | 259 kts | 102° |
| 2026-05-06 12:38 | 55.69935 | 12.85423 | 6489 ft | 265 kts | 130° |
| 2026-05-06 12:38 | 55.68597 | 12.87689 | 7175 ft | 272 kts | 140° |
| 2026-05-06 12:38 | 55.66933 | 12.89338 | 7894 ft | 278 kts | 159° |
| 2026-05-06 12:39 | 55.65092 | 12.90476 | 8647 ft | 282 kts | 162° |
| 2026-05-06 12:39 | 55.63209 | 12.91557 | 9407 ft | 286 kts | 163° |
| 2026-05-06 12:39 | 55.61248 | 12.91986 | 10105 ft | 287 kts | 190° |
| 2026-05-06 12:39 | 55.59349 | 12.90656 | 10377 ft | 304 kts | 213° |
| 2026-05-06 12:40 | 55.57586 | 12.88417 | 10719 ft | 319 kts | 222° |
| 2026-05-06 12:40 | 55.55964 | 12.85627 | 11159 ft | 329 kts | 227° |
| 2026-05-06 12:40 | 55.54393 | 12.82617 | 11819 ft | 334 kts | 229° |
| 2026-05-06 12:40 | 55.52838 | 12.79569 | 12608 ft | 333 kts | 231° |
| 2026-05-06 12:41 | 55.51778 | 12.75922 | 13155 ft | 337 kts | 256° |
| 2026-05-06 12:41 | 55.51299 | 12.71873 | 13863 ft | 340 kts | 261° |
| 2026-05-06 12:41 | 55.51060 | 12.67699 | 14480 ft | 342 kts | 266° |
| 2026-05-06 12:41 | 55.50951 | 12.63470 | 15011 ft | 347 kts | 268° |
| 2026-05-06 12:42 | 55.50867 | 12.59250 | 15594 ft | 349 kts | 268° |
| 2026-05-06 12:42 | 55.50762 | 12.54928 | 16139 ft | 354 kts | 266° |
| 2026-05-06 12:42 | 55.50607 | 12.50594 | 16786 ft | 354 kts | 265° |
| 2026-05-06 12:42 | 55.50442 | 12.46236 | 17261 ft | 360 kts | 266° |
| 2026-05-06 12:43 | 55.50271 | 12.41832 | 17825 ft | 362 kts | 266° |
| 2026-05-06 12:43 | 55.50098 | 12.37364 | 18270 ft | 367 kts | 266° |
| 2026-05-06 12:43 | 55.49921 | 12.32870 | 18810 ft | 367 kts | 266° |
| 2026-05-06 12:43 | 55.49745 | 12.28422 | 19282 ft | 368 kts | 265° |
| 2026-05-06 12:44 | 55.49199 | 12.24037 | 19707 ft | 369 kts | 245° |
| 2026-05-06 12:44 | 55.47942 | 12.20090 | 20164 ft | 370 kts | 237° |
| 2026-05-06 12:44 | 55.46444 | 12.16399 | 20619 ft | 371 kts | 232° |
| 2026-05-06 12:44 | 55.44816 | 12.12765 | 21064 ft | 373 kts | 232° |
| 2026-05-06 12:45 | 55.43217 | 12.09234 | 21497 ft | 375 kts | 232° |
| 2026-05-06 12:45 | 55.41602 | 12.05625 | 21916 ft | 376 kts | 232° |
| 2026-05-06 12:45 | 55.38426 | 11.98249 | 22712 ft | 380 kts | 233° |
| 2026-05-06 12:46 | 55.36834 | 11.94539 | 23101 ft | 381 kts | 233° |
| 2026-05-06 12:46 | 55.35241 | 11.90848 | 23481 ft | 383 kts | 233° |
| 2026-05-06 12:46 | 55.33627 | 11.87110 | 23799 ft | 384 kts | 232° |
| 2026-05-06 12:46 | 55.32013 | 11.83365 | 24096 ft | 386 kts | 232° |
| 2026-05-06 12:47 | 55.30385 | 11.79610 | 24395 ft | 387 kts | 232° |
| 2026-05-06 12:47 | 55.28750 | 11.75837 | 24682 ft | 389 kts | 232° |
| 2026-05-06 12:47 | 55.27110 | 11.72060 | 24972 ft | 390 kts | 232° |
| 2026-05-06 12:47 | 55.25465 | 11.68257 | 25246 ft | 391 kts | 233° |
| 2026-05-06 12:48 | 55.23897 | 11.64279 | 25513 ft | 393 kts | 236° |
| 2026-05-06 12:48 | 55.22469 | 11.60337 | 25782 ft | 394 kts | 237° |
| 2026-05-06 12:48 | 55.21011 | 11.56250 | 26001 ft | 397 kts | 237° |
| 2026-05-06 12:48 | 55.19541 | 11.52149 | 26258 ft | 398 kts | 237° |
| 2026-05-06 12:49 | 55.18051 | 11.48067 | 26490 ft | 399 kts | 236° |
| 2026-05-06 12:49 | 55.16543 | 11.43985 | 26729 ft | 400 kts | 236° |
| 2026-05-06 12:49 | 55.15025 | 11.39888 | 26950 ft | 402 kts | 236° |
| 2026-05-06 12:49 | 55.13501 | 11.35788 | 27176 ft | 403 kts | 236° |
| 2026-05-06 12:50 | 55.11966 | 11.31681 | 27390 ft | 404 kts | 236° |
| 2026-05-06 12:50 | 55.10429 | 11.27562 | 27603 ft | 405 kts | 236° |
| 2026-05-06 12:50 | 55.08889 | 11.23438 | 27804 ft | 406 kts | 236° |
| 2026-05-06 12:50 | 55.07336 | 11.19302 | 28008 ft | 407 kts | 236° |
| 2026-05-06 12:51 | 55.05783 | 11.15166 | 28225 ft | 408 kts | 236° |
| 2026-05-06 12:51 | 55.04230 | 11.11031 | 28483 ft | 407 kts | 235° |
| 2026-05-06 12:51 | 55.02674 | 11.06910 | 28747 ft | 406 kts | 235° |
| 2026-05-06 12:52 | 54.99553 | 10.98644 | 28984 ft | 410 kts | 235° |
| 2026-05-06 12:52 | 54.97981 | 10.94496 | 29276 ft | 409 kts | 235° |
| 2026-05-06 12:52 | 54.96418 | 10.90375 | 29576 ft | 407 kts | 236° |
| 2026-05-06 12:52 | 54.94984 | 10.86118 | 29787 ft | 408 kts | 244° |
| 2026-05-06 12:53 | 54.93968 | 10.81518 | 29988 ft | 409 kts | 250° |
| 2026-05-06 12:53 | 54.93148 | 10.76839 | 30179 ft | 409 kts | 252° |
| 2026-05-06 12:53 | 54.92451 | 10.72045 | 30365 ft | 409 kts | 254° |
| 2026-05-06 12:53 | 54.91792 | 10.67242 | 30543 ft | 408 kts | 254° |
| 2026-05-06 12:54 | 54.91121 | 10.62442 | 30713 ft | 408 kts | 253° |
| 2026-05-06 12:54 | 54.90407 | 10.57672 | 30887 ft | 407 kts | 253° |
| 2026-05-06 12:54 | 54.89686 | 10.52913 | 31052 ft | 407 kts | 252° |
| 2026-05-06 12:54 | 54.88965 | 10.48172 | 31217 ft | 406 kts | 252° |
| 2026-05-06 12:55 | 54.88241 | 10.43427 | 31381 ft | 406 kts | 252° |
| 2026-05-06 12:55 | 54.87516 | 10.38690 | 31546 ft | 405 kts | 252° |
| 2026-05-06 12:55 | 54.86790 | 10.33961 | 31704 ft | 405 kts | 252° |
| 2026-05-06 12:55 | 54.86073 | 10.29302 | 31863 ft | 404 kts | 252° |
| 2026-05-06 12:56 | 54.85345 | 10.24597 | 32012 ft | 404 kts | 252° |
| 2026-05-06 12:56 | 54.84616 | 10.19894 | 32153 ft | 403 kts | 252° |
| 2026-05-06 12:56 | 54.83886 | 10.15199 | 32255 ft | 404 kts | 252° |
| 2026-05-06 12:57 | 54.82413 | 10.05748 | 32395 ft | 406 kts | 251° |
| 2026-05-06 12:57 | 54.81668 | 10.01023 | 32536 ft | 406 kts | 251° |
| 2026-05-06 12:57 | 54.80651 | 9.96491 | 32636 ft | 402 kts | 242° |
| 2026-05-06 12:57 | 54.79390 | 9.92170 | 32775 ft | 401 kts | 239° |
| 2026-05-06 12:58 | 54.78008 | 9.87993 | 32916 ft | 399 kts | 236° |
| 2026-05-06 12:58 | 54.76507 | 9.83963 | 33064 ft | 398 kts | 234° |
| 2026-05-06 12:58 | 54.74990 | 9.79956 | 33201 ft | 398 kts | 234° |
| 2026-05-06 12:58 | 54.73476 | 9.75946 | 33352 ft | 397 kts | 234° |
| 2026-05-06 12:59 | 54.71966 | 9.71966 | 33545 ft | 395 kts | 234° |
| 2026-05-06 12:59 | 54.70480 | 9.67964 | 33670 ft | 395 kts | 235° |
| 2026-05-06 12:59 | 54.69000 | 9.63958 | 33787 ft | 395 kts | 235° |
| 2026-05-06 12:59 | 54.67521 | 9.59961 | 33917 ft | 394 kts | 235° |
| 2026-05-06 13:00 | 54.66062 | 9.56020 | 34012 ft | 394 kts | 235° |
| 2026-05-06 13:00 | 54.63108 | 9.48052 | 34170 ft | 394 kts | 235° |
| 2026-05-06 13:01 | 54.60125 | 9.40046 | 34248 ft | 397 kts | 235° |
| 2026-05-06 13:01 | 54.57129 | 9.32026 | 34446 ft | 398 kts | 235° |
| 2026-05-06 13:01 | 54.55630 | 9.28024 | 34562 ft | 397 kts | 235° |
| 2026-05-06 13:02 | 54.54127 | 9.24017 | 34637 ft | 398 kts | 235° |
| 2026-05-06 13:02 | 54.51631 | 9.17370 | 34797 ft | 398 kts | 235° |
| 2026-05-06 13:02 | 54.50126 | 9.13376 | 34933 ft | 397 kts | 235° |
| 2026-05-06 13:03 | 54.48629 | 9.09400 | 35078 ft | 396 kts | 235° |
| 2026-05-06 13:03 | 54.45627 | 9.01464 | 35263 ft | 396 kts | 235° |
| 2026-05-06 13:04 | 54.42617 | 8.93535 | 35441 ft | 396 kts | 235° |
| 2026-05-06 13:04 | 54.39593 | 8.85586 | 35489 ft | 399 kts | 235° |
| 2026-05-06 13:05 | 54.36551 | 8.77616 | 35698 ft | 398 kts | 235° |
| 2026-05-06 13:05 | 54.35033 | 8.73654 | 35807 ft | 398 kts | 235° |
| 2026-05-06 13:05 | 54.33514 | 8.69687 | 35856 ft | 399 kts | 235° |
| 2026-05-06 13:06 | 54.30451 | 8.61721 | 35888 ft | 400 kts | 235° |
| 2026-05-06 13:06 | 54.27390 | 8.53770 | 35893 ft | 399 kts | 235° |
| 2026-05-06 13:07 | 54.24334 | 8.45868 | 35900 ft | 398 kts | 235° |
| 2026-05-06 13:07 | 54.21272 | 8.37980 | 35900 ft | 398 kts | 235° |
| 2026-05-06 13:08 | 54.18219 | 8.30137 | 35897 ft | 399 kts | 235° |
| 2026-05-06 13:08 | 54.15139 | 8.22243 | 35900 ft | 400 kts | 235° |
| 2026-05-06 13:09 | 54.12046 | 8.14343 | 35901 ft | 401 kts | 235° |
| 2026-05-06 13:09 | 54.08942 | 8.06446 | 35901 ft | 401 kts | 235° |
| 2026-05-06 13:10 | 54.05838 | 7.98565 | 35902 ft | 400 kts | 235° |
| 2026-05-06 13:10 | 54.02745 | 7.90742 | 35909 ft | 398 kts | 235° |
| 2026-05-06 13:11 | 53.99657 | 7.82961 | 35902 ft | 396 kts | 235° |
| 2026-05-06 13:11 | 53.96581 | 7.75215 | 35901 ft | 394 kts | 235° |
| 2026-05-06 13:12 | 53.93547 | 7.67543 | 35904 ft | 392 kts | 235° |
| 2026-05-06 13:12 | 53.90509 | 7.59872 | 35898 ft | 391 kts | 234° |
| 2026-05-06 13:13 | 53.87439 | 7.52262 | 35898 ft | 389 kts | 234° |
| 2026-05-06 13:13 | 53.84414 | 7.44748 | 35902 ft | 388 kts | 235° |
| 2026-05-06 13:14 | 53.81377 | 7.37222 | 35899 ft | 386 kts | 234° |
| 2026-05-06 13:14 | 53.78324 | 7.29695 | 35919 ft | 391 kts | 234° |
| 2026-05-06 13:15 | 53.75223 | 7.22056 | 35913 ft | 397 kts | 234° |
| 2026-05-06 13:15 | 53.72064 | 7.14305 | 35915 ft | 403 kts | 234° |
| 2026-05-06 13:16 | 53.68856 | 7.06462 | 35918 ft | 406 kts | 234° |
| 2026-05-06 13:16 | 53.65638 | 6.98610 | 35915 ft | 407 kts | 234° |
| 2026-05-06 13:17 | 53.62418 | 6.90785 | 35904 ft | 405 kts | 234° |
| 2026-05-06 13:17 | 53.59207 | 6.83003 | 35909 ft | 404 kts | 234° |
| 2026-05-06 13:18 | 53.55994 | 6.75242 | 35906 ft | 404 kts | 234° |
| 2026-05-06 13:18 | 53.52779 | 6.67498 | 35903 ft | 403 kts | 234° |
| 2026-05-06 13:19 | 53.49568 | 6.59788 | 35908 ft | 403 kts | 234° |
| 2026-05-06 13:19 | 53.46365 | 6.52120 | 35910 ft | 404 kts | 234° |
| 2026-05-06 13:20 | 53.43124 | 6.44386 | 35909 ft | 405 kts | 234° |
| 2026-05-06 13:20 | 53.39871 | 6.36650 | 35922 ft | 406 kts | 234° |
| 2026-05-06 13:21 | 53.36605 | 6.28905 | 35917 ft | 407 kts | 233° |
| 2026-05-06 13:21 | 53.33329 | 6.21153 | 35917 ft | 408 kts | 233° |
| 2026-05-06 13:22 | 53.30080 | 6.13503 | 35929 ft | 409 kts | 233° |
| 2026-05-06 13:22 | 53.26808 | 6.05812 | 35915 ft | 410 kts | 234° |
| 2026-05-06 13:23 | 53.23512 | 5.98083 | 35915 ft | 410 kts | 234° |
| 2026-05-06 13:23 | 53.20211 | 5.90375 | 35912 ft | 411 kts | 233° |
| 2026-05-06 13:24 | 53.16891 | 5.82641 | 35911 ft | 409 kts | 233° |
| 2026-05-06 13:24 | 53.13571 | 5.74932 | 35910 ft | 408 kts | 233° |
| 2026-05-06 13:25 | 53.10261 | 5.67268 | 35900 ft | 407 kts | 233° |
| 2026-05-06 13:25 | 53.06948 | 5.59635 | 35915 ft | 406 kts | 233° |
| 2026-05-06 13:26 | 53.03645 | 5.52033 | 35912 ft | 405 kts | 233° |
| 2026-05-06 13:26 | 53.00342 | 5.44449 | 35908 ft | 405 kts | 233° |
| 2026-05-06 13:27 | 52.97035 | 5.36891 | 35911 ft | 404 kts | 233° |
| 2026-05-06 13:27 | 52.93756 | 5.29410 | 35909 ft | 403 kts | 233° |
| 2026-05-06 13:28 | 52.90453 | 5.21900 | 35922 ft | 402 kts | 233° |
| 2026-05-06 13:28 | 52.87151 | 5.14422 | 35923 ft | 402 kts | 233° |
| 2026-05-06 13:29 | 52.83852 | 5.06965 | 35926 ft | 401 kts | 233° |
| 2026-05-06 13:29 | 52.80551 | 4.99526 | 35931 ft | 401 kts | 233° |
| 2026-05-06 13:30 | 52.77252 | 4.92106 | 35928 ft | 400 kts | 233° |
| 2026-05-06 13:30 | 52.73946 | 4.84705 | 35929 ft | 401 kts | 233° |
| 2026-05-06 13:31 | 52.70617 | 4.77268 | 35910 ft | 404 kts | 233° |
| 2026-05-06 13:31 | 52.67265 | 4.69802 | 35909 ft | 406 kts | 233° |
| 2026-05-06 13:32 | 52.63913 | 4.62356 | 35899 ft | 408 kts | 233° |
| 2026-05-06 13:32 | 52.60518 | 4.54839 | 35904 ft | 410 kts | 233° |
| 2026-05-06 13:33 | 52.57104 | 4.47303 | 35898 ft | 412 kts | 233° |
| 2026-05-06 13:33 | 52.53668 | 4.39739 | 35898 ft | 414 kts | 232° |
| 2026-05-06 13:34 | 52.50214 | 4.32157 | 35908 ft | 415 kts | 232° |
| 2026-05-06 13:34 | 52.46734 | 4.24545 | 35902 ft | 417 kts | 232° |
| 2026-05-06 13:35 | 52.43245 | 4.16936 | 35907 ft | 418 kts | 232° |
| 2026-05-06 13:35 | 52.39750 | 4.09328 | 35903 ft | 416 kts | 232° |
| 2026-05-06 13:36 | 52.36302 | 4.01852 | 35901 ft | 412 kts | 232° |
| 2026-05-06 13:36 | 52.32859 | 3.94408 | 35912 ft | 408 kts | 232° |
| 2026-05-06 13:37 | 52.29442 | 3.87045 | 35911 ft | 405 kts | 232° |
| 2026-05-06 13:37 | 52.26053 | 3.79751 | 35908 ft | 401 kts | 232° |
| 2026-05-06 13:38 | 52.22674 | 3.72511 | 35920 ft | 401 kts | 232° |
| 2026-05-06 13:38 | 52.19282 | 3.65268 | 35920 ft | 402 kts | 232° |
| 2026-05-06 13:39 | 52.15875 | 3.57990 | 35915 ft | 404 kts | 232° |
| 2026-05-06 13:39 | 52.12453 | 3.50722 | 35926 ft | 405 kts | 232° |
| 2026-05-06 13:40 | 52.09012 | 3.43432 | 35928 ft | 407 kts | 232° |
| 2026-05-06 13:40 | 52.05553 | 3.36127 | 35921 ft | 408 kts | 232° |
| 2026-05-06 13:41 | 52.02105 | 3.28842 | 35933 ft | 409 kts | 232° |
| 2026-05-06 13:41 | 51.98726 | 3.21382 | 35925 ft | 411 kts | 242° |
| 2026-05-06 13:42 | 51.96800 | 3.12669 | 35942 ft | 411 kts | 253° |
| 2026-05-06 13:42 | 51.95505 | 3.03637 | 35940 ft | 413 kts | 262° |
| 2026-05-06 13:43 | 51.95032 | 2.94323 | 35939 ft | 415 kts | 264° |
| 2026-05-06 13:43 | 51.94503 | 2.84994 | 35939 ft | 415 kts | 263° |
| 2026-05-06 13:44 | 51.93877 | 2.75731 | 35936 ft | 417 kts | 262° |
| 2026-05-06 13:44 | 51.93252 | 2.66385 | 35941 ft | 418 kts | 263° |
| 2026-05-06 13:45 | 51.92597 | 2.57025 | 35940 ft | 417 kts | 262° |
| 2026-05-06 13:45 | 51.91623 | 2.43041 | 35948 ft | 415 kts | 263° |
| 2026-05-06 13:46 | 51.90979 | 2.33758 | 35949 ft | 414 kts | 263° |
| 2026-05-06 13:46 | 51.90575 | 2.24445 | 35946 ft | 414 kts | 267° |
| 2026-05-06 13:47 | 51.90413 | 2.15194 | 35946 ft | 413 kts | 268° |
| 2026-05-06 13:47 | 51.90244 | 2.05903 | 35950 ft | 412 kts | 267° |
| 2026-05-06 13:48 | 51.90021 | 1.96634 | 35950 ft | 411 kts | 267° |
| 2026-05-06 13:48 | 51.89374 | 1.87477 | 35957 ft | 409 kts | 257° |
| 2026-05-06 13:49 | 51.88166 | 1.80074 | 35956 ft | 410 kts | 252° |
| 2026-05-06 13:49 | 51.86311 | 1.71312 | 35961 ft | 412 kts | 251° |
| 2026-05-06 13:50 | 51.84134 | 1.61075 | 35961 ft | 415 kts | 251° |
| 2026-05-06 13:50 | 51.82614 | 1.53698 | 35960 ft | 417 kts | 251° |
| 2026-05-06 13:51 | 51.80774 | 1.44781 | 35961 ft | 419 kts | 251° |
| 2026-05-06 13:51 | 51.78919 | 1.35834 | 35956 ft | 421 kts | 251° |
| 2026-05-06 13:52 | 51.77050 | 1.26859 | 35959 ft | 423 kts | 251° |
| 2026-05-06 13:52 | 51.75172 | 1.17870 | 35958 ft | 419 kts | 251° |
| 2026-05-06 13:53 | 51.73320 | 1.09054 | 35952 ft | 413 kts | 251° |
| 2026-05-06 13:53 | 51.71472 | 1.00304 | 35957 ft | 411 kts | 251° |
| 2026-05-06 13:54 | 51.70080 | 0.91399 | 35964 ft | 409 kts | 261° |
| 2026-05-06 13:54 | 51.69418 | 0.82293 | 35966 ft | 408 kts | 264° |
| 2026-05-06 13:55 | 51.68878 | 0.73193 | 35936 ft | 407 kts | 264° |
| 2026-05-06 13:55 | 51.68581 | 0.68698 | 35644 ft | 411 kts | 263° |
| 2026-05-06 13:55 | 51.68258 | 0.64119 | 35132 ft | 412 kts | 263° |
| 2026-05-06 13:56 | 51.67921 | 0.59536 | 34631 ft | 411 kts | 263° |
| 2026-05-06 13:56 | 51.67591 | 0.54954 | 34137 ft | 413 kts | 263° |
| 2026-05-06 13:56 | 51.67258 | 0.50336 | 33593 ft | 417 kts | 263° |
| 2026-05-06 13:56 | 51.66925 | 0.45686 | 33002 ft | 419 kts | 263° |
| 2026-05-06 13:57 | 51.66581 | 0.41023 | 32425 ft | 420 kts | 263° |
| 2026-05-06 13:57 | 51.66226 | 0.36339 | 31853 ft | 421 kts | 263° |
| 2026-05-06 13:57 | 51.65879 | 0.31642 | 31324 ft | 422 kts | 263° |
| 2026-05-06 13:57 | 51.65529 | 0.26941 | 30776 ft | 423 kts | 263° |
| 2026-05-06 13:58 | 51.65176 | 0.22225 | 30235 ft | 426 kts | 263° |
| 2026-05-06 13:58 | 51.65106 | 0.17456 | 29623 ft | 429 kts | 277° |
| 2026-05-06 13:58 | 51.65731 | 0.12780 | 29022 ft | 425 kts | 283° |
| 2026-05-06 13:58 | 51.66529 | 0.08219 | 28418 ft | 422 kts | 287° |
| 2026-05-06 13:59 | 51.67618 | 0.03835 | 27824 ft | 420 kts | 293° |
| 2026-05-06 13:59 | 51.68873 | -0.00365 | 27303 ft | 414 kts | 295° |
| 2026-05-06 13:59 | 51.70131 | -0.04493 | 26741 ft | 404 kts | 295° |
| 2026-05-06 13:59 | 51.71325 | -0.08540 | 26207 ft | 396 kts | 294° |
| 2026-05-06 14:00 | 51.72457 | -0.12571 | 25659 ft | 393 kts | 293° |
| 2026-05-06 14:00 | 51.73581 | -0.16606 | 25179 ft | 393 kts | 293° |
| 2026-05-06 14:00 | 51.74687 | -0.20576 | 24718 ft | 392 kts | 293° |
| 2026-05-06 14:00 | 51.75777 | -0.24510 | 24250 ft | 390 kts | 293° |
| 2026-05-06 14:01 | 51.76884 | -0.28492 | 23777 ft | 388 kts | 293° |
| 2026-05-06 14:01 | 51.77970 | -0.32404 | 23254 ft | 386 kts | 293° |
| 2026-05-06 14:01 | 51.79063 | -0.36347 | 22653 ft | 384 kts | 293° |
| 2026-05-06 14:01 | 51.80266 | -0.40238 | 22113 ft | 383 kts | 304° |
| 2026-05-06 14:02 | 51.82127 | -0.43212 | 21633 ft | 382 kts | 320° |
| 2026-05-06 14:02 | 51.84298 | -0.45714 | 21146 ft | 384 kts | 324° |
| 2026-05-06 14:02 | 51.86581 | -0.47992 | 20678 ft | 386 kts | 327° |
| 2026-05-06 14:02 | 51.88917 | -0.50158 | 20207 ft | 387 kts | 328° |
| 2026-05-06 14:03 | 51.91253 | -0.52304 | 19740 ft | 384 kts | 328° |
| 2026-05-06 14:03 | 51.93553 | -0.54484 | 19272 ft | 380 kts | 327° |
| 2026-05-06 14:03 | 51.95806 | -0.56687 | 18811 ft | 377 kts | 327° |
| 2026-05-06 14:03 | 51.98048 | -0.58881 | 18355 ft | 375 kts | 328° |
| 2026-05-06 14:04 | 52.00270 | -0.61060 | 17855 ft | 372 kts | 327° |
| 2026-05-06 14:04 | 52.02482 | -0.63227 | 17353 ft | 370 kts | 327° |
| 2026-05-06 14:04 | 52.04682 | -0.65385 | 16878 ft | 368 kts | 327° |
| 2026-05-06 14:04 | 52.06864 | -0.67525 | 16360 ft | 366 kts | 327° |
| 2026-05-06 14:05 | 52.09041 | -0.69664 | 15882 ft | 365 kts | 327° |
| 2026-05-06 14:05 | 52.11182 | -0.71767 | 15415 ft | 363 kts | 327° |
| 2026-05-06 14:05 | 52.13324 | -0.73888 | 14954 ft | 357 kts | 327° |
| 2026-05-06 14:05 | 52.15412 | -0.75941 | 14499 ft | 345 kts | 327° |
| 2026-05-06 14:06 | 52.17456 | -0.77961 | 14060 ft | 345 kts | 328° |
| 2026-05-06 14:06 | 52.19508 | -0.79979 | 13620 ft | 343 kts | 328° |
| 2026-05-06 14:06 | 52.21545 | -0.81988 | 13146 ft | 341 kts | 327° |
| 2026-05-06 14:06 | 52.23494 | -0.84151 | 12689 ft | 337 kts | 316° |
| 2026-05-06 14:07 | 52.24775 | -0.87243 | 12230 ft | 326 kts | 295° |
| 2026-05-06 14:07 | 52.25574 | -0.90642 | 11799 ft | 317 kts | 288° |
| 2026-05-06 14:07 | 52.26109 | -0.94097 | 11368 ft | 310 kts | 283° |
| 2026-05-06 14:07 | 52.26526 | -0.97509 | 10967 ft | 303 kts | 282° |
| 2026-05-06 14:08 | 52.26928 | -1.00854 | 10599 ft | 297 kts | 282° |
| 2026-05-06 14:08 | 52.27316 | -1.04132 | 10217 ft | 292 kts | 282° |
| 2026-05-06 14:08 | 52.27722 | -1.07350 | 9846 ft | 287 kts | 284° |
| 2026-05-06 14:08 | 52.28151 | -1.10466 | 9473 ft | 282 kts | 284° |
| 2026-05-06 14:09 | 52.28577 | -1.13560 | 9093 ft | 277 kts | 284° |
| 2026-05-06 14:09 | 52.28997 | -1.16614 | 8716 ft | 273 kts | 284° |
| 2026-05-06 14:09 | 52.29404 | -1.19624 | 8350 ft | 269 kts | 284° |
| 2026-05-06 14:09 | 52.29789 | -1.22605 | 7984 ft | 266 kts | 284° |
| 2026-05-06 14:10 | 52.30092 | -1.25569 | 7635 ft | 263 kts | 281° |
| 2026-05-06 14:10 | 52.30340 | -1.28504 | 7291 ft | 260 kts | 281° |
| 2026-05-06 14:10 | 52.30578 | -1.31415 | 6963 ft | 257 kts | 281° |
| 2026-05-06 14:10 | 52.30716 | -1.34303 | 6626 ft | 254 kts | 273° |
| 2026-05-06 14:11 | 52.30697 | -1.37182 | 6298 ft | 252 kts | 270° |
| 2026-05-06 14:11 | 52.30654 | -1.40027 | 5952 ft | 249 kts | 270° |
| 2026-05-06 14:11 | 52.30616 | -1.42841 | 5613 ft | 247 kts | 270° |
| 2026-05-06 14:11 | 52.30564 | -1.45632 | 5283 ft | 244 kts | 269° |
| 2026-05-06 14:12 | 52.30498 | -1.48357 | 4954 ft | 242 kts | 270° |
| 2026-05-06 14:12 | 52.30425 | -1.51097 | 4624 ft | 241 kts | 271° |
| 2026-05-06 14:12 | 52.30366 | -1.53830 | 4282 ft | 240 kts | 270° |
| 2026-05-06 14:12 | 52.30305 | -1.56541 | 3945 ft | 238 kts | 273° |
| 2026-05-06 14:13 | 52.30731 | -1.59069 | 3642 ft | 228 kts | 306° |
| 2026-05-06 14:13 | 52.31865 | -1.60732 | 3405 ft | 214 kts | 332° |
| 2026-05-06 14:13 | 52.33142 | -1.61903 | 3161 ft | 208 kts | 334° |
| 2026-05-06 14:13 | 52.34367 | -1.63007 | 2899 ft | 196 kts | 334° |
| 2026-05-06 14:14 | 52.35542 | -1.64048 | 2603 ft | 189 kts | 333° |
| 2026-05-06 14:14 | 52.36640 | -1.65106 | 2360 ft | 172 kts | 330° |
| 2026-05-06 14:14 | 52.37568 | -1.66128 | 2125 ft | 151 kts | 329° |
| 2026-05-06 14:14 | 52.38381 | -1.67009 | 1862 ft | 127 kts | 329° |
| 2026-05-06 14:15 | 52.39060 | -1.67779 | 1591 ft | 120 kts | 331° |
| 2026-05-06 14:15 | 52.39786 | -1.68569 | 1492 ft | 132 kts | 330° |
| 2026-05-06 14:15 | 52.40559 | -1.69435 | 1406 ft | 137 kts | 327° |
| 2026-05-06 14:15 | 52.41365 | -1.70327 | 1257 ft | 138 kts | 329° |
| 2026-05-06 14:16 | 52.42162 | -1.71196 | 1021 ft | 141 kts | 328° |
| 2026-05-06 14:16 | 52.42965 | -1.72126 | 798 ft | 138 kts | 327° |
| 2026-05-06 14:16 | 52.43745 | -1.72996 | 575 ft | 141 kts | 329° |
| 2026-05-06 14:16 | 52.44558 | -1.73884 | 389 ft | 137 kts | 330° |
| 2026-05-06 14:17 | 52.45279 | -1.74682 | 325 ft | 99 kts | 326° |
| 2026-05-06 14:17 | 52.45714 | -1.75166 | 322 ft | 57 kts | 326° |
| 2026-05-06 14:17 | 52.45999 | -1.75482 | 311 ft | 40 kts | 326° |
| 2026-05-06 14:17 | 52.46123 | -1.75616 | 309 ft | 12 kts | 336° |
| 2026-05-06 14:18 | 52.46177 | -1.75558 | 309 ft | 10 kts | 56° |
| 2026-05-06 14:18 | 52.46216 | -1.75456 | 305 ft | 7 kts | 75° |
| 2026-05-06 14:18 | 52.46190 | -1.75369 | 303 ft | 10 kts | 143° |
| 2026-05-06 14:18 | 52.46123 | -1.75293 | 303 ft | 13 kts | 144° |
| 2026-05-06 14:19 | 52.46044 | -1.75204 | 305 ft | 15 kts | 146° |
| 2026-05-06 14:19 | 52.45948 | -1.75099 | 304 ft | 18 kts | 146° |
| 2026-05-06 14:19 | 52.45840 | -1.74979 | 306 ft | 20 kts | 146° |
| 2026-05-06 14:19 | 52.45723 | -1.74849 | 310 ft | 20 kts | 146° |
| 2026-05-06 14:20 | 52.45617 | -1.74732 | 316 ft | 17 kts | 146° |
| 2026-05-06 14:20 | 52.45527 | -1.74632 | 320 ft | 15 kts | 146° |
| 2026-05-06 14:20 | 52.45454 | -1.74505 | 322 ft | 16 kts | 117° |
| 2026-05-06 14:20 | 52.45403 | -1.74340 | 321 ft | 17 kts | 117° |
| 2026-05-06 14:21 | 52.45351 | -1.74170 | 322 ft | 17 kts | 116° |
| 2026-05-06 14:21 | 52.45310 | -1.74020 | 322 ft | 11 kts | 96° |
| 2026-05-06 14:21 | 52.45342 | -1.73907 | 322 ft | 12 kts | 56° |
| 2026-05-06 14:21 | 52.45389 | -1.73795 | 322 ft | 12 kts | 57° |
| 2026-05-06 14:22 | 52.45438 | -1.73676 | 322 ft | 13 kts | 55° |
| 2026-05-06 14:22 | 52.45479 | -1.73577 | 320 ft | 4 kts | 55° |
| 2026-05-06 14:22 | 52.45482 | -1.73545 | 322 ft | 2 kts | 117° |
| 2026-05-06 14:22 | 52.45463 | -1.73515 | 321 ft | 5 kts | 146° |
| 2026-05-06 14:23 | 52.45440 | -1.73490 | 322 ft | 1 kts | 146° |
| 2026-05-06 14:23 | 52.45440 | -1.73489 | 322 ft | 0 kts | 146° |